createdAt,value
2019-05-13T00:00:25.811Z,1031.53
2019-05-13T00:15:26.050Z,1031.54
2019-05-13T00:30:26.176Z,1031.63
2019-05-13T00:45:26.402Z,1031.64
2019-05-13T01:00:26.542Z,1031.63
2019-05-13T01:15:26.746Z,1031.65
2019-05-13T01:30:26.949Z,1031.65
2019-05-13T01:45:27.129Z,1031.71
2019-05-13T02:00:27.352Z,1031.88
2019-05-13T02:15:27.549Z,1032.00
2019-05-13T02:30:27.775Z,1032.14
2019-05-13T02:45:29.012Z,1032.04
2019-05-13T03:00:32.623Z,1032.16
2019-05-13T03:15:33.501Z,1032.15
2019-05-13T03:30:35.595Z,1032.36
2019-05-13T03:45:35.965Z,1032.36
2019-05-13T04:00:36.091Z,1032.48
2019-05-13T04:15:36.256Z,1032.62
2019-05-13T04:30:36.380Z,1032.66
2019-05-13T04:45:36.660Z,1032.82
2019-05-13T05:00:36.829Z,1032.99
2019-05-13T05:15:36.999Z,1033.14
2019-05-13T05:30:37.164Z,1033.20
2019-05-13T05:45:37.273Z,1033.15
2019-05-13T06:00:37.389Z,1033.30
2019-05-13T06:15:37.482Z,1033.44
2019-05-13T06:30:37.607Z,1033.32
2019-05-13T06:45:37.836Z,1033.46
2019-05-13T07:00:38.021Z,1033.41
2019-05-13T07:15:41.432Z,1033.42
2019-05-13T07:30:42.664Z,1033.49
2019-05-13T07:45:43.338Z,1033.43
2019-05-13T08:00:43.435Z,1033.32
2019-05-13T08:15:43.668Z,1033.25
2019-05-13T08:30:43.893Z,1033.30
2019-05-13T08:45:44.035Z,1033.18
2019-05-13T09:00:44.160Z,1033.19
2019-05-13T09:15:44.376Z,1033.16
2019-05-13T09:30:44.526Z,1033.18
2019-05-13T09:45:44.699Z,1033.18
2019-05-13T10:00:44.896Z,1033.03
2019-05-13T10:15:48.733Z,1033.18
2019-05-13T10:30:52.491Z,1033.03
2019-05-13T10:45:53.503Z,1033.07
2019-05-13T11:00:53.726Z,1032.89
2019-05-13T11:15:58.022Z,1032.89
2019-05-13T11:30:59.765Z,1032.75
2019-05-13T11:46:02.206Z,1032.64
2019-05-13T12:01:03.003Z,1032.52
2019-05-13T12:16:04.141Z,1032.37
2019-05-13T12:31:04.325Z,1032.29
2019-05-13T12:46:04.452Z,1032.24
2019-05-13T13:01:04.609Z,1032.03
2019-05-13T13:16:04.828Z,1031.89
2019-05-13T13:31:04.908Z,1031.64
2019-05-13T13:46:25.129Z,1031.56
2019-05-13T14:01:17.742Z,1031.31
2019-05-13T14:16:41.771Z,1031.31
2019-05-13T14:31:21.425Z,1031.28
2019-05-13T14:46:27.058Z,1031.22
2019-05-13T15:01:26.769Z,1031.08
2019-05-13T15:16:28.005Z,1030.99
2019-05-13T15:31:28.136Z,1031.00
2019-05-13T15:46:28.310Z,1031.06
2019-05-13T16:01:28.459Z,1031.02
2019-05-13T16:16:28.623Z,1031.08
2019-05-13T16:31:28.737Z,1031.02
2019-05-13T16:46:28.942Z,1031.01
2019-05-13T17:01:31.111Z,1031.04
2019-05-13T17:16:31.738Z,1031.08
2019-05-13T17:31:32.658Z,1031.15
2019-05-13T17:46:32.770Z,1031.27
2019-05-13T18:01:32.872Z,1031.30
2019-05-13T18:16:33.102Z,1031.37
2019-05-13T18:31:33.308Z,1031.38
2019-05-13T18:46:33.513Z,1031.57
2019-05-13T19:01:33.603Z,1031.54
2019-05-13T19:16:33.827Z,1031.72
2019-05-13T19:31:34.015Z,1031.79
2019-05-13T19:46:34.154Z,1031.78
2019-05-13T20:01:34.311Z,1031.83
2019-05-13T20:16:34.441Z,1031.79
2019-05-13T20:31:34.656Z,1031.73
2019-05-13T20:46:34.821Z,1031.82
2019-05-13T21:01:34.970Z,1031.92
2019-05-13T21:16:35.690Z,1031.87
2019-05-13T21:31:35.889Z,1032.01
2019-05-13T21:46:36.128Z,1032.06
2019-05-13T22:01:36.322Z,1031.85
2019-05-13T22:16:36.532Z,1031.82
2019-05-13T22:31:36.733Z,1031.69
2019-05-13T22:46:36.921Z,1031.73
2019-05-13T23:01:37.113Z,1031.66
2019-05-13T23:16:37.352Z,1031.57
2019-05-13T23:31:37.629Z,1031.54
2019-05-13T23:46:37.775Z,1031.59
